LYTV Airport Information

Runway Information
Runway 14 Length 8208 ft width 148 ft
Elevation 7 ft Threshold 0 ft Heading 139
Runway 32 Length 8208 ft Width 148 ft
Elevation 16 ft Threshold 0 ft Heading 319
Airport Frequencies
Type ARR Name APP Frequency 118 MHZ
Type TWR Name TWR Frequency 118 MHZ
Airport Navaids
Type NDB Name Tivat Frequency 345 KHZ
Airport Weather Information & NOTAM
ADDS - METARS form results

(1411 UTC 14 June 2021)
Data provider http://aviationweather.gov/metar/data/
 
METAR text: LYTV 141400Z VRB08KT CAVOK 25/M01 Q1013 NOSIG
Conditions at: LYTV (TIVAT , ME) observed 1400 UTC 14 June 2021
Temperature: 25.0°C (77°F)
Dewpoint: -1.0°C (30°F) [RH = 18%]
Pressure (altimeter): 29.91 inches Hg (1013.0 mb)
Winds: variable direction winds at 9 MPH (8 knots; 4.1 m/s)
Visibility: 6 or more miles (10+ km)
Ceiling: ceiling and visibility are OK
Clouds: unknown
Weather: no significant weather observed at this time

METAR text: LYTV 141330Z VRB09KT CAVOK 26/00 Q1014 NOSIG
Conditions at: LYTV (TIVAT , ME) observed 1330 UTC 14 June 2021
Temperature: 26.0°C (79°F)
Dewpoint: 0.0°C (32°F) [RH = 18%]
Pressure (altimeter): 29.94 inches Hg (1014.0 mb)
Winds: variable direction winds at 10 MPH (9 knots; 4.6 m/s)
Visibility: 6 or more miles (10+ km)
Ceiling: ceiling and visibility are OK
Clouds: unknown
Weather: no significant weather observed at this time

Forecast for: LYTV (TIVAT , ME)
Text: TAF LYTV 141100Z 1412/1512 33010KT CAVOK TX25/1413Z TN17/1504Z
Forecast period: 1200 UTC 14 June 2021 to 1200 UTC 15 June 2021
Forecast type: FROM: standard forecast or significant change
Winds: from the NNW (330 degrees) at 12 MPH (10 knots; 5.1 m/s)
Visibility: 6 or more miles (10+ km)
Ceiling: unknown
Clouds: missing
Weather: no significant weather forecast for this period
Text: TEMPO 1420/1502 02018G28KT
Forecast period: 2000 UTC 14 June 2021 to 0200 UTC 15 June 2021
Forecast type: TEMPORARY: The following changes expected for less than half the time period
Winds: from the NNE (20 degrees) at 21 MPH (18 knots; 9.3 m/s)
gusting to 32 MPH (28 knots; 14.4 m/s)
Visibility: missing
Ceiling: unknown
Clouds: missing
Weather: no significant weather forecast for this period